Time;durP1;ratioP1;P1;durP2;ratioP2;P2;SDS_P1;SDS_P2;PMS_P1;PMS_P2;Temp;Humidity;BMP_temperature;BMP_pressure;BME280_temperature;BME280_humidity;BME280_pressure;Samples;Min_cycle;Max_cycle;Signal;HPM_P1;HPM_P2
2023/03/22 00:02:25;;;;;;;14.13;7.95;;;9.10;99.90;;;;;;4992530;28;20097;-60
2023/03/22 00:04:51;;;;;;;13.32;9.43;;;9.10;99.90;;;;;;4993857;28;20077;-59
2023/03/22 00:07:17;;;;;;;8.80;7.53;;;9.20;99.90;;;;;;4993979;28;20073;-59
2023/03/22 00:09:42;;;;;;;11.63;8.07;;;9.10;99.90;;;;;;4993601;28;20481;-60
2023/03/22 00:12:08;;;;;;;9.65;8.13;;;9.10;99.90;;;;;;4993819;28;20022;-59
2023/03/22 00:14:35;;;;;;;11.88;8.32;;;9.10;99.90;;;;;;4993224;28;20030;-60
2023/03/22 00:17:00;;;;;;;17.95;8.57;;;9.10;99.90;;;;;;4993373;28;20485;-60
2023/03/22 00:19:28;;;;;;;12.82;8.48;;;9.00;99.90;;;;;;4993628;28;20045;-60
2023/03/22 00:21:54;;;;;;;11.13;8.50;;;9.00;99.90;;;;;;4993373;28;20106;-60
2023/03/22 00:24:20;;;;;;;9.65;8.60;;;9.00;99.90;;;;;;4993482;28;20046;-58
2023/03/22 00:26:46;;;;;;;10.60;8.45;;;9.00;99.90;;;;;;4993240;28;20039;-60
2023/03/22 00:29:12;;;;;;;9.15;7.80;;;9.00;99.90;;;;;;4993198;28;20041;-58
2023/03/22 00:31:37;;;;;;;9.18;8.07;;;9.10;99.90;;;;;;4993233;28;20370;-60
2023/03/22 00:34:03;;;;;;;12.48;8.85;;;9.10;99.90;;;;;;4993216;28;20026;-60
2023/03/22 00:36:29;;;;;;;18.35;9.35;;;9.00;99.90;;;;;;4993280;28;20018;-57
2023/03/22 00:38:54;;;;;;;9.98;8.25;;;8.90;99.90;;;;;;4993092;28;20121;-60
2023/03/22 00:41:22;;;;;;;12.98;9.05;;;8.90;99.90;;;;;;4993133;28;20670;-59
2023/03/22 00:43:49;;;;;;;10.82;8.23;;;8.90;99.90;;;;;;4992987;28;20105;-60
2023/03/22 00:46:18;;;;;;;11.70;8.98;;;8.90;99.90;;;;;;4992953;28;20033;-60
2023/03/22 00:48:43;;;;;;;14.18;9.27;;;8.90;99.90;;;;;;4992703;28;20038;-60
2023/03/22 00:51:10;;;;;;;16.08;8.95;;;8.90;99.90;;;;;;4993077;28;20029;-60
2023/03/22 00:53:35;;;;;;;14.93;8.50;;;8.80;99.90;;;;;;4992990;28;20689;-60
2023/03/22 00:56:02;;;;;;;17.25;9.35;;;8.70;99.90;;;;;;4992803;28;20034;-60
2023/03/22 00:58:27;;;;;;;12.32;10.90;;;8.70;99.90;;;;;;4992698;28;20030;-60
2023/03/22 01:00:53;;;;;;;10.77;9.18;;;8.70;99.90;;;;;;4992664;28;20029;-60
2023/03/22 01:03:20;;;;;;;13.57;9.68;;;8.70;99.90;;;;;;4992796;28;20038;-60
2023/03/22 01:05:48;;;;;;;15.45;9.55;;;8.70;99.90;;;;;;4992722;28;20504;-60
2023/03/22 01:08:14;;;;;;;15.77;9.52;;;8.70;99.90;;;;;;4992609;28;20509;-59
2023/03/22 01:10:40;;;;;;;9.32;8.30;;;8.70;99.90;;;;;;4992557;28;20022;-60
2023/03/22 01:13:07;;;;;;;10.50;8.98;;;8.70;99.90;;;;;;4992546;28;20085;-60
2023/03/22 01:15:33;;;;;;;13.35;9.18;;;8.70;99.90;;;;;;4992639;28;20029;-61
2023/03/22 01:18:00;;;;;;;11.30;8.35;;;8.70;99.90;;;;;;4992377;28;20022;-58
2023/03/22 01:20:26;;;;;;;14.48;8.65;;;8.60;99.90;;;;;;4992646;28;20434;-60
2023/03/22 01:22:52;;;;;;;13.25;8.38;;;8.60;99.90;;;;;;4992357;28;20053;-60
2023/03/22 01:25:17;;;;;;;13.07;9.13;;;8.60;99.90;;;;;;4991817;28;20026;-59
2023/03/22 01:27:43;;;;;;;17.45;8.80;;;8.60;99.90;;;;;;4991989;28;20548;-60
2023/03/22 01:30:10;;;;;;;9.73;8.52;;;8.60;99.90;;;;;;4992375;28;20023;-59
2023/03/22 01:32:37;;;;;;;13.57;8.18;;;8.60;99.90;;;;;;4992408;28;20031;-57
2023/03/22 01:35:04;;;;;;;11.90;8.60;;;8.70;99.90;;;;;;4992306;28;20026;-57
2023/03/22 01:37:31;;;;;;;12.32;8.57;;;8.70;99.90;;;;;;4992296;28;20062;-59
2023/03/22 01:39:58;;;;;;;8.63;7.82;;;8.60;99.90;;;;;;4992039;28;20062;-60
2023/03/22 01:42:25;;;;;;;16.80;9.20;;;8.50;99.90;;;;;;4992304;28;20026;-59
2023/03/22 01:45:12;;;;;;;11.73;8.85;;;8.50;99.90;;;;;;4992100;28;20030;-60
2023/03/22 01:47:47;;;;;;;9.70;8.70;;;8.50;99.90;;;;;;4992277;28;20081;-60
2023/03/22 01:50:15;;;;;;;8.68;7.80;;;8.50;99.90;;;;;;4992131;28;20034;-59
2023/03/22 01:52:41;;;;;;;10.90;8.73;;;8.50;99.90;;;;;;4990621;28;20538;-59
2023/03/22 01:55:11;;;;;;;11.55;8.73;;;8.50;99.90;;;;;;4992203;28;20030;-60
2023/03/22 01:57:37;;;;;;;14.68;8.73;;;8.40;99.90;;;;;;4992154;28;20093;-60
2023/03/22 02:00:14;;;;;;;10.52;8.90;;;8.40;99.90;;;;;;4991264;28;20031;-60
2023/03/22 02:02:42;;;;;;;10.90;9.27;;;8.40;99.90;;;;;;4989954;28;20054;-60
2023/03/22 02:05:08;;;;;;;16.85;10.10;;;8.40;99.90;;;;;;4991725;28;20027;-59
2023/03/22 02:07:36;;;;;;;10.93;8.60;;;8.30;99.90;;;;;;4991616;28;20109;-61
2023/03/22 02:10:02;;;;;;;12.07;10.02;;;8.30;99.90;;;;;;4991400;28;20041;-59
2023/03/22 02:12:55;;;;;;;10.10;7.82;;;8.30;99.90;;;;;;4991996;28;20537;-59
2023/03/22 02:15:37;;;;;;;11.27;9.00;;;8.20;99.90;;;;;;4991109;28;20034;-59
2023/03/22 02:18:15;;;;;;;10.75;9.00;;;8.10;99.90;;;;;;4991153;28;20015;-58
2023/03/22 02:20:49;;;;;;;10.32;8.00;;;8.10;99.90;;;;;;4990935;28;20037;-60
2023/03/22 02:23:36;;;;;;;13.15;9.35;;;8.10;99.90;;;;;;4991909;28;20478;-60
2023/03/22 02:26:14;;;;;;;11.93;8.20;;;8.00;99.90;;;;;;4991695;28;20022;-60
2023/03/22 02:28:57;;;;;;;11.50;8.80;;;8.00;99.90;;;;;;4991493;28;20096;-59
2023/03/22 02:31:32;;;;;;;11.32;9.82;;;8.00;99.90;;;;;;4991914;28;20041;-60
2023/03/22 02:34:23;;;;;;;11.52;8.07;;;8.00;99.90;;;;;;4991647;28;20034;-59
2023/03/22 02:37:08;;;;;;;10.98;7.32;;;8.00;99.90;;;;;;4993483;28;20478;-58
2023/03/22 02:39:58;;;;;;;13.30;8.38;;;7.80;99.90;;;;;;4995435;28;20030;-61
2023/03/22 02:42:36;;;;;;;14.80;7.40;;;7.70;99.90;;;;;;4995331;28;20062;-60
2023/03/22 02:45:07;;;;;;;10.55;7.85;;;7.70;99.90;;;;;;4995258;28;20029;-60
2023/03/22 02:48:07;;;;;;;9.77;7.85;;;7.70;99.90;;;;;;4995280;28;20105;-60
2023/03/22 02:50:53;;;;;;;11.57;8.13;;;7.80;99.90;;;;;;4976557;28;20133;-58
2023/03/22 02:53:37;;;;;;;10.90;7.93;;;7.70;99.90;;;;;;4994826;28;20081;-60
2023/03/22 02:56:05;;;;;;;;;;;7.70;99.90;;;;;;4995490;28;20069;-59
2023/03/22 02:58:38;;;;;;;16.52;7.72;;;7.70;99.90;;;;;;4995293;28;20626;-58
2023/03/22 03:01:07;;;;;;;9.40;7.53;;;7.70;99.90;;;;;;4993753;28;20029;-60
2023/03/22 03:03:36;;;;;;;7.43;6.72;;;7.60;99.90;;;;;;4995012;28;20053;-59
2023/03/22 03:06:16;;;;;;;9.02;8.00;;;7.60;99.90;;;;;;4994991;28;20065;-57
2023/03/22 03:08:45;;;;;;;7.85;7.05;;;7.50;99.90;;;;;;4994695;28;20118;-60
2023/03/22 03:11:12;;;;;;;12.23;8.20;;;7.50;99.90;;;;;;4994770;28;20030;-57
2023/03/22 03:13:37;;;;;;;8.43;7.63;;;7.50;99.90;;;;;;4994424;28;20037;-60
2023/03/22 03:16:06;;;;;;;10.77;8.02;;;7.50;99.90;;;;;;4994329;28;20022;-59
2023/03/22 03:19:06;;;;;;;13.82;7.35;;;7.50;99.90;;;;;;4993153;28;20498;-60
2023/03/22 03:21:37;;;;;;;8.43;7.28;;;7.50;99.90;;;;;;4994402;28;20026;-55
2023/03/22 03:24:18;;;;;;;10.57;8.10;;;7.40;99.90;;;;;;4994609;28;20033;-57
2023/03/22 03:26:50;;;;;;;10.57;7.68;;;7.40;99.90;;;;;;4994227;28;20058;-60
2023/03/22 03:29:24;;;;;;;8.32;6.90;;;7.30;99.90;;;;;;4994492;28;20061;-60
2023/03/22 03:32:12;;;;;;;8.82;7.57;;;7.30;99.90;;;;;;4994251;28;20080;-59
2023/03/22 03:34:56;;;;;;;10.60;7.63;;;7.30;99.90;;;;;;4994300;28;20022;-60
2023/03/22 03:37:27;;;;;;;10.98;8.15;;;7.30;99.90;;;;;;4994412;28;20093;-58
2023/03/22 03:40:10;;;;;;;12.32;7.18;;;7.30;99.90;;;;;;4993999;28;20038;-59
2023/03/22 03:42:47;;;;;;;10.43;7.03;;;7.20;99.90;;;;;;4994052;28;20031;-58
2023/03/22 03:45:15;;;;;;;10.95;6.97;;;7.20;99.90;;;;;;4992706;28;20034;-60
2023/03/22 03:47:45;;;;;;;17.38;8.43;;;7.10;99.90;;;;;;4993150;28;20050;-58
2023/03/22 03:50:14;;;;;;;9.98;6.88;;;7.00;99.90;;;;;;4994091;28;20065;-59
2023/03/22 03:52:40;;;;;;;15.43;7.28;;;6.80;99.90;;;;;;4992592;28;20030;-59
2023/03/22 03:55:06;;;;;;;17.30;8.15;;;6.70;99.90;;;;;;4994100;28;20019;-58
2023/03/22 03:57:31;;;;;;;9.63;8.52;;;6.60;99.90;;;;;;4993959;28;20023;-56
2023/03/22 03:59:57;;;;;;;10.05;6.78;;;6.60;99.90;;;;;;4993886;28;20039;-59
2023/03/22 04:02:23;;;;;;;10.68;6.68;;;6.50;99.90;;;;;;4993911;28;20105;-58
2023/03/22 04:04:48;;;;;;;17.25;7.97;;;6.50;99.90;;;;;;4993699;28;20053;-58
2023/03/22 04:07:14;;;;;;;10.07;7.38;;;6.50;99.90;;;;;;4993707;28;20486;-58
2023/03/22 04:09:41;;;;;;;12.05;7.28;;;6.50;99.90;;;;;;4993540;28;20026;-60
2023/03/22 04:12:08;;;;;;;11.75;6.88;;;6.40;99.90;;;;;;4992344;28;20021;-59
2023/03/22 04:14:34;;;;;;;11.27;6.63;;;6.40;99.90;;;;;;4993629;28;20092;-60
2023/03/22 04:17:03;;;;;;;8.60;6.63;;;6.30;99.90;;;;;;4993387;28;20114;-60
2023/03/22 04:19:28;;;;;;;8.27;6.97;;;6.30;99.90;;;;;;4993583;28;20034;-59
2023/03/22 04:21:54;;;;;;;11.43;7.43;;;6.20;99.90;;;;;;4993158;28;20026;-59
2023/03/22 04:24:20;;;;;;;10.90;7.32;;;6.00;99.90;;;;;;4993519;28;20018;-60
2023/03/22 04:26:46;;;;;;;10.60;6.85;;;6.00;99.90;;;;;;4991793;28;20056;-58
2023/03/22 04:29:12;;;;;;;9.13;7.00;;;6.00;99.90;;;;;;4993423;28;20038;-60
2023/03/22 04:31:38;;;;;;;11.18;7.35;;;5.90;99.90;;;;;;4993246;28;20153;-59
2023/03/22 04:34:04;;;;;;;11.80;8.00;;;5.90;99.90;;;;;;4993278;28;20105;-58
2023/03/22 04:36:38;;;;;;;18.48;7.07;;;5.80;99.90;;;;;;4993229;28;20536;-59
2023/03/22 04:39:05;;;;;;;12.85;7.93;;;5.80;99.90;;;;;;4993196;28;20458;-59
2023/03/22 04:41:32;;;;;;;18.85;7.10;;;5.80;99.90;;;;;;4993233;28;20034;-59
2023/03/22 04:44:01;;;;;;;10.75;6.75;;;5.70;99.90;;;;;;4993044;28;20049;-58
2023/03/22 04:46:31;;;;;;;19.20;6.38;;;5.70;99.90;;;;;;4992991;28;20006;-56
2023/03/22 04:48:57;;;;;;;12.00;5.78;;;5.70;99.90;;;;;;4992906;28;20041;-59
2023/03/22 04:51:23;;;;;;;10.18;6.38;;;5.60;99.90;;;;;;4993049;28;20394;-58
2023/03/22 04:53:48;;;;;;;8.00;6.85;;;5.60;99.90;;;;;;4992739;28;20034;-59
2023/03/22 04:56:14;;;;;;;9.20;6.05;;;5.60;99.90;;;;;;4992873;28;20033;-60
2023/03/22 04:58:41;;;;;;;12.18;6.65;;;5.60;99.90;;;;;;4992788;28;20397;-58
2023/03/22 05:01:09;;;;;;;11.65;6.85;;;5.70;99.90;;;;;;4992780;28;20028;-60
2023/03/22 05:03:36;;;;;;;7.47;6.72;;;5.80;99.90;;;;;;4992765;28;20027;-58
2023/03/22 05:06:03;;;;;;;9.35;8.13;;;5.80;99.90;;;;;;4992577;28;20446;-60
2023/03/22 05:08:30;;;;;;;11.43;6.82;;;5.90;99.90;;;;;;4992561;28;20061;-59
2023/03/22 05:10:58;;;;;;;10.13;6.15;;;6.00;99.90;;;;;;4992544;28;20030;-59
2023/03/22 05:13:25;;;;;;;9.02;6.63;;;6.10;99.90;;;;;;4992644;28;20030;-57
2023/03/22 05:15:51;;;;;;;9.10;6.65;;;6.10;99.90;;;;;;4992415;28;20072;-60
2023/03/22 05:18:23;;;;;;;11.07;6.78;;;6.10;99.90;;;;;;4992543;28;20462;-57
2023/03/22 05:20:49;;;;;;;8.60;6.60;;;6.10;99.90;;;;;;4992143;28;20501;-59
2023/03/22 05:23:19;;;;;;;12.43;6.82;;;6.20;99.90;;;;;;4992491;28;20026;-58
2023/03/22 05:25:47;;;;;;;9.75;7.28;;;6.20;99.90;;;;;;4992368;28;20436;-58
2023/03/22 05:28:13;;;;;;;10.00;6.47;;;6.30;99.90;;;;;;4992103;28;20363;-60
2023/03/22 05:30:41;;;;;;;9.80;7.35;;;6.30;99.90;;;;;;4992428;28;20054;-59
2023/03/22 05:33:07;;;;;;;9.60;6.75;;;6.30;99.90;;;;;;4992291;28;20032;-59
2023/03/22 05:35:34;;;;;;;11.75;7.53;;;6.30;99.90;;;;;;4992244;28;20369;-58
2023/03/22 05:38:00;;;;;;;16.42;8.68;;;6.30;99.90;;;;;;4992130;28;20030;-59
2023/03/22 05:40:26;;;;;;;15.82;7.82;;;6.40;99.90;;;;;;4992373;28;20500;-53
2023/03/22 05:42:53;;;;;;;15.68;7.32;;;6.40;99.90;;;;;;4992115;28;20475;-60
2023/03/22 05:45:20;;;;;;;10.88;7.43;;;6.40;99.90;;;;;;4989204;28;20038;-59
2023/03/22 05:47:46;;;;;;;13.23;7.13;;;6.50;99.90;;;;;;4991253;28;20555;-59
2023/03/22 05:50:15;;;;;;;6.68;5.72;;;6.60;99.90;;;;;;4991567;28;20030;-59
2023/03/22 05:52:41;;;;;;;10.07;7.20;;;6.60;99.90;;;;;;4991439;28;20419;-59
2023/03/22 05:55:07;;;;;;;13.38;7.90;;;6.70;99.90;;;;;;4992056;28;20392;-56
2023/03/22 05:57:33;;;;;;;10.55;8.10;;;6.70;99.90;;;;;;4991879;28;20031;-58
2023/03/22 06:00:00;;;;;;;13.00;7.75;;;6.70;99.90;;;;;;4992311;28;20085;-58
2023/03/22 06:02:27;;;;;;;15.50;7.60;;;6.70;99.90;;;;;;4991522;28;20038;-60
2023/03/22 06:08:15;;;;;;;15.82;8.02;;;6.60;99.90;;;;;;4991698;28;20048;-59
2023/03/22 06:10:40;;;;;;;11.32;7.53;;;6.60;99.90;;;;;;4992120;28;20045;-60
2023/03/22 06:13:06;;;;;;;11.27;6.88;;;6.60;99.90;;;;;;4995084;28;20022;-60
2023/03/22 06:15:32;;;;;;;12.32;6.88;;;6.60;99.90;;;;;;4995572;28;20152;-60
2023/03/22 06:17:57;;;;;;;10.45;8.02;;;6.60;99.90;;;;;;4995151;28;20043;-60
2023/03/22 06:20:24;;;;;;;12.20;6.90;;;6.60;99.90;;;;;;4995114;28;20037;-59
2023/03/22 06:22:50;;;;;;;13.70;6.88;;;6.60;99.90;;;;;;4995260;28;20032;-59
2023/03/22 06:25:15;;;;;;;8.93;6.40;;;6.60;99.90;;;;;;4994969;28;20030;-60
2023/03/22 06:27:41;;;;;;;18.92;7.28;;;6.70;99.90;;;;;;4994690;28;20046;-58
2023/03/22 06:30:19;;;;;;;9.02;6.82;;;6.60;99.90;;;;;;4994717;28;20049;-59
2023/03/22 06:32:44;;;;;;;24.40;7.65;;;6.60;99.90;;;;;;4994798;28;20150;-59
2023/03/22 06:35:10;;;;;;;11.48;7.68;;;6.70;99.90;;;;;;4995016;28;20458;-60
2023/03/22 06:37:36;;;;;;;10.98;7.82;;;6.80;99.90;;;;;;4994858;28;20034;-60
2023/03/22 06:40:02;;;;;;;11.68;7.68;;;6.90;99.90;;;;;;4994559;28;20041;-59
2023/03/22 06:42:29;;;;;;;16.83;8.90;;;7.00;99.90;;;;;;4994986;28;20036;-60
2023/03/22 06:44:56;;;;;;;11.65;8.30;;;7.10;99.90;;;;;;4994695;28;20022;-58
2023/03/22 06:47:22;;;;;;;8.25;7.32;;;7.30;99.90;;;;;;4993365;28;20037;-60
2023/03/22 06:49:47;;;;;;;10.20;8.02;;;7.40;99.90;;;;;;4994156;28;20030;-68
2023/03/22 06:52:13;;;;;;;10.00;7.13;;;7.60;99.90;;;;;;4994770;28;20050;-60
2023/03/22 06:54:39;;;;;;;13.10;8.02;;;7.70;99.90;;;;;;4994578;28;20033;-61
2023/03/22 06:57:04;;;;;;;15.27;8.05;;;8.00;99.90;;;;;;4994851;28;20066;-60
2023/03/22 06:59:30;;;;;;;12.13;7.60;;;8.20;99.90;;;;;;4993594;28;20031;-59
2023/03/22 07:01:56;;;;;;;11.55;7.95;;;8.30;99.90;;;;;;4994656;28;20038;-59
2023/03/22 07:04:22;;;;;;;15.07;7.47;;;8.50;99.90;;;;;;4994145;28;20045;-59
2023/03/22 07:06:48;;;;;;;12.10;8.15;;;8.60;99.90;;;;;;4994129;28;20018;-59
2023/03/22 07:09:14;;;;;;;14.75;8.13;;;8.80;99.90;;;;;;4994537;28;20026;-59
2023/03/22 07:11:40;;;;;;;14.90;6.88;;;8.90;99.90;;;;;;4994060;28;20014;-59
2023/03/22 07:14:05;;;;;;;14.15;7.45;;;9.00;99.90;;;;;;4994022;28;20034;-59
2023/03/22 07:16:31;;;;;;;12.48;6.82;;;9.20;99.90;;;;;;4994057;28;20618;-59
2023/03/22 07:18:56;;;;;;;8.38;7.47;;;9.40;99.90;;;;;;4993710;28;20060;-60
2023/03/22 07:21:22;;;;;;;11.98;7.10;;;9.50;99.90;;;;;;4993723;28;20062;-66
2023/03/22 07:23:48;;;;;;;9.38;7.15;;;9.70;99.90;;;;;;4991285;28;20061;-59
2023/03/22 07:26:13;;;;;;;10.82;7.18;;;9.90;99.90;;;;;;4993736;28;20093;-60
2023/03/22 07:28:40;;;;;;;14.45;8.00;;;10.10;99.90;;;;;;4993318;28;20570;-59
2023/03/22 07:31:10;;;;;;;11.32;7.45;;;10.30;99.90;;;;;;4994274;28;20027;-59
2023/03/22 07:33:39;;;;;;;8.70;6.45;;;10.60;99.90;;;;;;4994062;28;20030;-58
2023/03/22 07:36:06;;;;;;;9.13;6.82;;;10.80;99.90;;;;;;4993919;28;20022;-59
2023/03/22 07:38:32;;;;;;;9.82;6.35;;;10.90;99.90;;;;;;4993499;28;20022;-58
2023/03/22 07:40:58;;;;;;;8.88;6.70;;;11.10;99.90;;;;;;4993619;28;20042;-59
2023/03/22 07:43:24;;;;;;;8.57;6.10;;;11.30;99.90;;;;;;4994074;28;20492;-60
2023/03/22 07:45:50;;;;;;;12.55;6.40;;;11.40;99.90;;;;;;4993008;28;20073;-59
2023/03/22 07:48:20;;;;;;;17.27;6.43;;;11.50;99.90;;;;;;4993710;28;20040;-59
2023/03/22 07:50:46;;;;;;;8.70;5.80;;;11.60;99.90;;;;;;4993832;28;20549;-57
2023/03/22 07:53:12;;;;;;;12.07;5.60;;;11.70;99.90;;;;;;4993919;28;20019;-59
2023/03/22 07:55:38;;;;;;;7.43;5.45;;;11.90;99.90;;;;;;4992665;28;20057;-59
2023/03/22 07:58:05;;;;;;;23.35;5.82;;;12.00;99.90;;;;;;4994236;28;20056;-59
2023/03/22 08:00:31;;;;;;;9.52;5.78;;;12.20;99.90;;;;;;4993715;28;20065;-57
2023/03/22 08:02:56;;;;;;;7.18;5.70;;;12.40;99.90;;;;;;4993311;28;20033;-58
2023/03/22 08:05:22;;;;;;;7.38;5.70;;;12.60;99.90;;;;;;4991515;28;20031;-57
2023/03/22 08:07:50;;;;;;;7.40;5.00;;;12.70;99.90;;;;;;4992968;28;20409;-59
2023/03/22 08:10:16;;;;;;;6.00;5.25;;;12.90;99.90;;;;;;4992873;28;20522;-58
2023/03/22 08:12:42;;;;;;;7.45;4.65;;;13.00;99.90;;;;;;4992526;28;20026;-59
2023/03/22 08:15:08;;;;;;;5.70;5.07;;;13.10;99.90;;;;;;4991621;28;20113;-59
2023/03/22 08:17:34;;;;;;;11.10;5.63;;;13.20;99.90;;;;;;4993287;28;20041;-59
2023/03/22 08:20:07;;;;;;;11.45;6.20;;;13.40;99.30;;;;;;4992809;28;20033;-59
2023/03/22 08:22:34;;;;;;;8.05;5.90;;;13.50;99.20;;;;;;4993271;28;20018;-57
2023/03/22 08:25:00;;;;;;;6.25;4.63;;;13.60;99.70;;;;;;4993181;28;20022;-59
2023/03/22 08:27:26;;;;;;;7.22;5.35;;;13.80;99.00;;;;;;4993090;28;20375;-58
2023/03/22 08:29:51;;;;;;;9.93;5.95;;;13.90;98.10;;;;;;4992980;28;20029;-60
2023/03/22 08:32:17;;;;;;;7.70;5.38;;;13.90;99.30;;;;;;4993150;28;20026;-59
2023/03/22 08:34:43;;;;;;;7.50;5.28;;;14.20;98.00;;;;;;4992277;28;20101;-59
2023/03/22 08:37:11;;;;;;;9.00;5.40;;;14.40;98.30;;;;;;4993028;28;20026;-59
2023/03/22 08:39:37;;;;;;;9.23;6.00;;;14.70;96.90;;;;;;4992979;28;20137;-59
2023/03/22 08:42:03;;;;;;;13.32;5.88;;;14.80;94.50;;;;;;4992954;28;20514;-59
2023/03/22 08:44:29;;;;;;;10.43;6.45;;;14.90;94.70;;;;;;4992797;28;20118;-59
2023/03/22 08:46:55;;;;;;;7.50;5.20;;;15.00;95.20;;;;;;4992552;28;20031;-60
2023/03/22 08:49:21;;;;;;;7.93;5.90;;;15.20;94.40;;;;;;4992853;28;20158;-56
2023/03/22 08:51:47;;;;;;;8.73;6.28;;;15.40;93.60;;;;;;4990210;28;20109;-59
2023/03/22 08:54:13;;;;;;;7.75;5.70;;;15.40;93.70;;;;;;4991769;28;20101;-59
2023/03/22 08:56:40;;;;;;;8.45;6.15;;;15.60;92.60;;;;;;4990540;28;20081;-59
2023/03/22 08:59:08;;;;;;;6.88;4.95;;;15.90;92.30;;;;;;4991817;28;20022;-59
2023/03/22 09:01:35;;;;;;;6.88;4.70;;;15.70;90.20;;;;;;4992351;28;20026;-60
2023/03/22 09:04:01;;;;;;;5.78;4.65;;;16.00;90.40;;;;;;4990995;28;20029;-60
2023/03/22 09:06:26;;;;;;;7.20;5.47;;;16.00;87.00;;;;;;4991597;28;20537;-58
2023/03/22 09:08:52;;;;;;;9.23;5.05;;;15.90;86.00;;;;;;4991063;28;20035;-60
2023/03/22 09:11:18;;;;;;;5.90;4.75;;;15.90;86.00;;;;;;4991794;28;20038;-59
2023/03/22 09:13:44;;;;;;;8.85;5.38;;;16.30;87.90;;;;;;4991504;28;20027;-59
2023/03/22 09:16:10;;;;;;;7.43;4.75;;;16.50;85.50;;;;;;4991744;28;20046;-57
2023/03/22 09:18:37;;;;;;;9.02;5.10;;;16.60;81.80;;;;;;4991696;28;20085;-58
2023/03/22 09:21:06;;;;;;;8.43;4.50;;;16.80;86.50;;;;;;4992509;28;20036;-56
2023/03/22 09:23:33;;;;;;;11.25;5.60;;;16.70;80.10;;;;;;4991751;28;20023;-57
2023/03/22 09:26:00;;;;;;;8.63;4.30;;;16.70;82.00;;;;;;4989890;28;20045;-59
2023/03/22 09:28:26;;;;;;;5.72;4.45;;;16.70;77.70;;;;;;4990707;28;20057;-59
2023/03/22 09:30:52;;;;;;;13.30;4.55;;;16.90;80.60;;;;;;4991441;28;20581;-58
2023/03/22 09:33:18;;;;;;;7.50;4.57;;;17.10;78.40;;;;;;4991502;28;20019;-58
2023/03/22 09:35:44;;;;;;;6.82;4.75;;;16.80;77.60;;;;;;4991079;28;20054;-59
2023/03/22 09:38:11;;;;;;;6.97;4.68;;;16.80;77.70;;;;;;4991310;28;20386;-54
2023/03/22 09:40:45;;;;;;;6.55;4.95;;;17.00;78.10;;;;;;4990915;28;20023;-57
2023/03/22 09:43:13;;;;;;;7.78;4.80;;;17.10;77.30;;;;;;4989192;28;20065;-59
2023/03/22 09:45:44;;;;;;;6.93;5.55;;;17.60;76.70;;;;;;4990734;28;20030;-58
2023/03/22 09:48:26;;;;;;;8.85;5.53;;;17.90;76.50;;;;;;4991481;28;20052;-56
2023/03/22 09:50:53;;;;;;;13.60;5.60;;;18.00;71.90;;;;;;4991045;28;20085;-59
2023/03/22 09:53:21;;;;;;;11.65;5.13;;;17.70;71.00;;;;;;4991327;28;20501;-58
2023/03/22 09:55:56;;;;;;;11.45;5.38;;;18.20;71.30;;;;;;4991250;28;20033;-58
2023/03/22 09:59:00;;;;;;;13.70;5.30;;;18.50;70.20;;;;;;4991690;28;20105;-57
2023/03/22 10:01:30;;;;;;;9.60;4.45;;;18.50;69.90;;;;;;4988053;28;20042;-60
2023/03/22 10:04:32;;;;;;;8.63;5.70;;;18.60;68.30;;;;;;4991785;28;20026;-57
2023/03/22 10:07:22;;;;;;;5.25;4.10;;;18.80;66.90;;;;;;4991556;28;20038;-59
2023/03/22 10:10:03;;;;;;;4.03;3.35;;;19.50;67.90;;;;;;4991568;28;20049;-56
2023/03/22 10:12:34;;;;;;;4.43;3.67;;;18.80;60.30;;;;;;4991756;28;20031;-59
2023/03/22 10:15:11;;;;;;;5.65;3.63;;;18.80;60.00;;;;;;4991527;28;20466;-55
2023/03/22 10:17:38;;;;;;;5.03;3.72;;;18.80;59.70;;;;;;4991358;28;20419;-55
2023/03/22 10:20:33;;;;;;;5.82;3.47;;;18.60;57.50;;;;;;4990791;28;20521;-59
2023/03/22 10:23:02;;;;;;;4.93;3.47;;;19.00;58.50;;;;;;4990340;28;20509;-58
2023/03/22 10:25:39;;;;;;;6.25;3.60;;;19.10;60.10;;;;;;4991893;28;20113;-57
2023/03/22 10:28:20;;;;;;;6.72;3.20;;;19.10;57.90;;;;;;4991804;28;20051;-56
2023/03/22 10:30:55;;;;;;;3.13;2.25;;;19.30;60.90;;;;;;4991646;28;20022;-53
2023/03/22 10:33:50;;;;;;;3.83;2.78;;;19.00;53.80;;;;;;4991710;28;20049;-59
2023/03/22 10:36:21;;;;;;;4.28;2.78;;;19.00;53.20;;;;;;4991459;28;20014;-58
2023/03/22 10:38:55;;;;;;;10.95;3.55;;;19.40;53.80;;;;;;4990982;28;20366;-56
2023/03/22 10:41:23;;;;;;;6.22;3.33;;;19.20;53.20;;;;;;4991776;28;20381;-56
2023/03/22 10:43:56;;;;;;;4.75;3.53;;;19.50;54.50;;;;;;4990898;28;20022;-55
2023/03/22 10:46:25;;;;;;;10.30;3.30;;;19.60;56.40;;;;;;4991095;28;20030;-57
2023/03/22 10:48:56;;;;;;;7.90;3.13;;;19.60;54.20;;;;;;4991482;28;20030;-58
2023/03/22 10:51:43;;;;;;;4.97;3.50;;;19.80;53.20;;;;;;4990464;28;20027;-59
2023/03/22 10:54:15;;;;;;;4.10;2.72;;;19.60;56.30;;;;;;4989815;28;20037;-60
2023/03/22 10:56:41;;;;;;;9.07;2.80;;;19.60;50.00;;;;;;4991156;28;20121;-56
2023/03/22 10:59:09;;;;;;;4.57;2.85;;;20.20;49.70;;;;;;4994490;28;20054;-58
2023/03/22 11:01:36;;;;;;;3.85;2.60;;;20.10;51.30;;;;;;4994807;28;20033;-57
2023/03/22 11:04:11;;;;;;;4.30;3.13;;;21.10;47.40;;;;;;4994648;28;20438;-60
2023/03/22 11:06:50;;;;;;;3.30;2.67;;;22.10;47.10;;;;;;4994579;28;20081;-60
2023/03/22 11:09:18;;;;;;;3.95;2.40;;;22.60;45.60;;;;;;4993890;28;20034;-59
2023/03/22 11:11:53;;;;;;;4.70;2.90;;;24.30;43.50;;;;;;4994661;28;20033;-60
2023/03/22 11:14:42;;;;;;;4.90;2.40;;;24.50;43.50;;;;;;4994357;28;20022;-61
2023/03/22 11:17:13;;;;;;;3.97;2.20;;;24.60;42.50;;;;;;4994621;28;20022;-60
2023/03/22 11:20:00;;;;;;;4.03;2.80;;;26.00;40.10;;;;;;4994665;28;20037;-60
2023/03/22 11:22:46;;;;;;;5.45;2.85;;;25.60;39.40;;;;;;4994626;28;20030;-59
2023/03/22 11:25:20;;;;;;;5.13;3.25;;;25.50;38.60;;;;;;4994332;28;20520;-59
2023/03/22 11:27:50;;;;;;;2.58;2.15;;;26.20;39.00;;;;;;4990358;28;20391;-59
2023/03/22 11:30:21;;;;;;;3.63;2.33;;;25.30;38.90;;;;;;4964079;28;20046;-60
2023/03/22 11:32:47;;;;;;;2.92;1.83;;;24.60;38.20;;;;;;4983405;28;20421;-59
2023/03/22 11:35:22;;;;;;;4.90;2.15;;;25.50;39.50;;;;;;4983065;28;20108;-60
2023/03/22 11:37:53;;;;;;;5.03;2.22;;;25.10;37.50;;;;;;4982520;28;20425;-56
2023/03/22 11:40:20;;;;;;;5.00;2.20;;;27.10;38.80;;;;;;4982572;28;20346;-59
2023/03/22 11:42:48;;;;;;;3.05;2.30;;;28.90;36.50;;;;;;4977685;28;20605;-58
2023/03/22 11:45:18;;;;;;;3.08;1.85;;;28.10;35.30;;;;;;4963272;28;20039;-56
2023/03/22 11:47:44;;;;;;;2.05;1.85;;;28.50;34.60;;;;;;4977551;28;20033;-58
2023/03/22 11:50:28;;;;;;;2.85;1.80;;;28.70;34.70;;;;;;4963941;28;20051;-57
2023/03/22 11:52:55;;;;;;;2.55;1.85;;;29.40;34.50;;;;;;4982148;28;20403;-55
2023/03/22 11:55:21;;;;;;;5.78;1.70;;;29.70;33.60;;;;;;4973863;28;20121;-59
2023/03/22 11:57:49;;;;;;;2.35;1.80;;;28.70;32.90;;;;;;4964125;28;20046;-59
2023/03/22 12:00:22;;;;;;;2.50;1.75;;;28.30;33.40;;;;;;4974063;28;20053;-59
2023/03/22 12:02:56;;;;;;;3.20;2.20;;;28.90;34.90;;;;;;4982250;28;20088;-59
2023/03/22 12:05:29;;;;;;;3.95;2.00;;;29.90;32.20;;;;;;4978750;28;20082;-60
2023/03/22 12:08:05;;;;;;;2.08;1.40;;;29.50;33.20;;;;;;4962809;28;20038;-60
2023/03/22 12:10:38;;;;;;;2.67;2.00;;;28.90;34.00;;;;;;4979223;28;20031;-59
2023/03/22 12:13:08;;;;;;;;;;;28.70;33.00;;;;;;4981562;28;20835;-60
2023/03/22 12:15:40;;;;;;;5.75;1.70;;;29.60;32.60;;;;;;4982509;28;19910;-60
2023/03/22 12:18:21;;;;;;;2.80;1.85;;;29.40;34.50;;;;;;4967565;28;20081;-60
2023/03/22 12:20:55;;;;;;;5.25;1.70;;;29.30;32.50;;;;;;4964747;28;20093;-59
2023/03/22 12:23:23;;;;;;;2.80;2.08;;;31.10;32.00;;;;;;4981159;28;20045;-59
2023/03/22 12:25:52;;;;;;;3.63;2.03;;;29.40;32.60;;;;;;4981752;28;20037;-56
2023/03/22 12:28:21;;;;;;;4.00;2.03;;;28.80;32.90;;;;;;4992053;28;20086;-60
2023/03/22 12:30:53;;;;;;;2.72;1.83;;;28.90;33.10;;;;;;4992518;28;20069;-60
2023/03/22 12:33:27;;;;;;;5.75;1.75;;;29.20;32.20;;;;;;4992905;28;20033;-59
2023/03/22 12:36:00;;;;;;;6.35;1.80;;;29.50;31.60;;;;;;4992722;28;20378;-58
2023/03/22 12:38:55;;;;;;;2.58;2.03;;;30.50;31.20;;;;;;4992947;28;20109;-60
2023/03/22 12:41:25;;;;;;;4.60;2.08;;;29.20;31.30;;;;;;4993020;28;20034;-59
2023/03/22 12:44:29;;;;;;;3.38;1.85;;;29.90;31.40;;;;;;4992969;28;20378;-59
2023/03/22 12:46:56;;;;;;;;;;;30.70;30.40;;;;;;4970052;28;20569;-58
2023/03/22 12:49:36;;;;;;;3.22;1.90;;;30.30;31.40;;;;;;4988435;28;19956;-60
2023/03/22 12:52:18;;;;;;;4.40;1.92;;;30.00;31.30;;;;;;4992026;28;20113;-60
2023/03/22 12:54:46;;;;;;;3.05;1.67;;;30.50;30.00;;;;;;4992809;28;20487;-61
2023/03/22 12:57:14;;;;;;;2.33;1.63;;;31.10;29.60;;;;;;4992649;28;20085;-59
2023/03/22 12:59:43;;;;;;;3.75;2.00;;;32.40;30.00;;;;;;4992542;28;20057;-60
2023/03/22 13:02:16;;;;;;;5.63;1.80;;;32.60;29.80;;;;;;4992665;28;20026;-59
2023/03/22 13:04:42;;;;;;;4.78;1.98;;;32.10;29.70;;;;;;4992442;28;20037;-60
2023/03/22 13:07:15;;;;;;;3.08;1.90;;;31.40;29.40;;;;;;4992463;28;20026;-59